sensor_id;sensor_type;location;lat;lon;timestamp;temperature;humidity
74220;DHT22;62580;54.416;11.120;2022-11-04T00:00:27;17.90;58.30
74220;DHT22;62580;54.416;11.120;2022-11-04T00:10:29;17.90;58.30
74220;DHT22;62580;54.416;11.120;2022-11-04T00:20:29;17.90;58.20
74220;DHT22;62580;54.416;11.120;2022-11-04T00:30:32;17.90;58.30
74220;DHT22;62580;54.416;11.120;2022-11-04T00:40:32;17.90;58.40
74220;DHT22;62580;54.416;11.120;2022-11-04T00:50:35;17.90;58.30
74220;DHT22;62580;54.416;11.120;2022-11-04T01:00:37;17.90;58.30
74220;DHT22;62580;54.416;11.120;2022-11-04T01:10:39;17.80;58.40
74220;DHT22;62580;54.416;11.120;2022-11-04T01:20:40;17.90;58.40
74220;DHT22;62580;54.416;11.120;2022-11-04T01:30:42;17.80;58.90
74220;DHT22;62580;54.416;11.120;2022-11-04T01:40:43;17.90;58.30
74220;DHT22;62580;54.416;11.120;2022-11-04T01:50:45;17.90;58.30
74220;DHT22;62580;54.416;11.120;2022-11-04T02:00:46;17.80;58.30
74220;DHT22;62580;54.416;11.120;2022-11-04T02:10:51;17.90;58.30
74220;DHT22;62580;54.416;11.120;2022-11-04T02:21:11;17.80;58.40
74220;DHT22;62580;54.416;11.120;2022-11-04T02:31:19;17.90;58.30
74220;DHT22;62580;54.416;11.120;2022-11-04T02:41:27;17.90;58.40
74220;DHT22;62580;54.416;11.120;2022-11-04T02:51:38;17.80;58.40
74220;DHT22;62580;54.416;11.120;2022-11-04T03:01:42;17.90;58.40
74220;DHT22;62580;54.416;11.120;2022-11-04T03:11:49;17.80;58.40
74220;DHT22;62580;54.416;11.120;2022-11-04T03:21:56;17.90;58.40
74220;DHT22;62580;54.416;11.120;2022-11-04T03:32:05;17.90;58.40
74220;DHT22;62580;54.416;11.120;2022-11-04T03:42:08;17.80;58.30
74220;DHT22;62580;54.416;11.120;2022-11-04T03:52:11;17.90;58.30
74220;DHT22;62580;54.416;11.120;2022-11-04T04:02:15;17.90;58.30
74220;DHT22;62580;54.416;11.120;2022-11-04T04:12:25;17.80;58.90
74220;DHT22;62580;54.416;11.120;2022-11-04T04:22:28;17.90;58.30
74220;DHT22;62580;54.416;11.120;2022-11-04T04:32:34;17.90;58.30
74220;DHT22;62580;54.416;11.120;2022-11-04T04:42:37;17.90;58.30
74220;DHT22;62580;54.416;11.120;2022-11-04T04:52:41;17.90;58.30
74220;DHT22;62580;54.416;11.120;2022-11-04T05:02:42;17.90;58.40
74220;DHT22;62580;54.416;11.120;2022-11-04T05:12:44;17.90;58.40
74220;DHT22;62580;54.416;11.120;2022-11-04T05:22:45;17.90;58.40
74220;DHT22;62580;54.416;11.120;2022-11-04T05:32:47;17.90;58.40
74220;DHT22;62580;54.416;11.120;2022-11-04T05:42:47;17.90;58.40
74220;DHT22;62580;54.416;11.120;2022-11-04T05:52:49;17.90;58.40
74220;DHT22;62580;54.416;11.120;2022-11-04T06:02:50;17.90;59.10
74220;DHT22;62580;54.416;11.120;2022-11-04T06:12:52;17.90;58.40
74220;DHT22;62580;54.416;11.120;2022-11-04T06:22:53;17.90;58.30
74220;DHT22;62580;54.416;11.120;2022-11-04T06:32:55;17.90;58.40
74220;DHT22;62580;54.416;11.120;2022-11-04T06:42:56;17.90;58.30
74220;DHT22;62580;54.416;11.120;2022-11-04T06:52:57;17.90;58.40
74220;DHT22;62580;54.416;11.120;2022-11-04T07:02:58;17.90;58.40
74220;DHT22;62580;54.416;11.120;2022-11-04T07:13:00;17.90;58.40
74220;DHT22;62580;54.416;11.120;2022-11-04T07:23:01;17.90;58.40
74220;DHT22;62580;54.416;11.120;2022-11-04T07:33:03;17.90;58.40
74220;DHT22;62580;54.416;11.120;2022-11-04T07:43:04;17.90;58.40
74220;DHT22;62580;54.416;11.120;2022-11-04T07:53:06;17.90;58.30
74220;DHT22;62580;54.416;11.120;2022-11-04T08:03:07;17.90;58.40
74220;DHT22;62580;54.416;11.120;2022-11-04T08:13:09;17.90;58.40
74220;DHT22;62580;54.416;11.120;2022-11-04T08:23:09;17.90;58.30
74220;DHT22;62580;54.416;11.120;2022-11-04T08:33:11;17.90;58.40
74220;DHT22;62580;54.416;11.120;2022-11-04T08:43:12;17.90;58.40
74220;DHT22;62580;54.416;11.120;2022-11-04T08:53:14;17.90;58.30
74220;DHT22;62580;54.416;11.120;2022-11-04T09:03:15;17.90;58.40
74220;DHT22;62580;54.416;11.120;2022-11-04T09:13:17;17.90;58.40
74220;DHT22;62580;54.416;11.120;2022-11-04T09:23:18;17.90;58.20
74220;DHT22;62580;54.416;11.120;2022-11-04T09:33:21;18.00;58.30
74220;DHT22;62580;54.416;11.120;2022-11-04T09:43:28;17.90;58.20
74220;DHT22;62580;54.416;11.120;2022-11-04T09:53:38;18.00;58.20
74220;DHT22;62580;54.416;11.120;2022-11-04T10:03:47;18.00;58.10
74220;DHT22;62580;54.416;11.120;2022-11-04T10:14:09;18.00;58.20
74220;DHT22;62580;54.416;11.120;2022-11-04T10:24:19;18.00;58.20
74220;DHT22;62580;54.416;11.120;2022-11-04T10:34:28;18.00;58.10
74220;DHT22;62580;54.416;11.120;2022-11-04T10:44:32;18.10;58.20
74220;DHT22;62580;54.416;11.120;2022-11-04T10:54:38;18.10;58.20
74220;DHT22;62580;54.416;11.120;2022-11-04T11:04:39;18.00;58.20
74220;DHT22;62580;54.416;11.120;2022-11-04T11:14:42;18.10;58.20
74220;DHT22;62580;54.416;11.120;2022-11-04T11:24:42;18.10;58.20
74220;DHT22;62580;54.416;11.120;2022-11-04T11:34:44;18.10;58.10
74220;DHT22;62580;54.416;11.120;2022-11-04T11:44:48;18.10;58.20
74220;DHT22;62580;54.416;11.120;2022-11-04T11:54:52;18.10;58.20
74220;DHT22;62580;54.416;11.120;2022-11-04T12:04:54;18.10;58.20
74220;DHT22;62580;54.416;11.120;2022-11-04T12:15:07;18.10;58.20
74220;DHT22;62580;54.416;11.120;2022-11-04T12:25:18;18.20;58.20
74220;DHT22;62580;54.416;11.120;2022-11-04T12:35:32;18.20;58.30
74220;DHT22;62580;54.416;11.120;2022-11-04T12:45:44;18.20;58.20
74220;DHT22;62580;54.416;11.120;2022-11-04T12:55:55;18.30;58.20
74220;DHT22;62580;54.416;11.120;2022-11-04T13:06:01;18.20;58.20
74220;DHT22;62580;54.416;11.120;2022-11-04T13:16:09;18.20;58.30
74220;DHT22;62580;54.416;11.120;2022-11-04T13:26:13;18.20;58.40
74220;DHT22;62580;54.416;11.120;2022-11-04T13:36:24;18.20;58.30
74220;DHT22;62580;54.416;11.120;2022-11-04T13:46:29;18.20;58.40
74220;DHT22;62580;54.416;11.120;2022-11-04T13:56:34;18.20;58.30
74220;DHT22;62580;54.416;11.120;2022-11-04T14:06:53;18.20;58.40
74220;DHT22;62580;54.416;11.120;2022-11-04T14:16:56;18.20;58.50
74220;DHT22;62580;54.416;11.120;2022-11-04T14:26:57;18.20;58.50
74220;DHT22;62580;54.416;11.120;2022-11-04T14:37:00;18.20;58.40
74220;DHT22;62580;54.416;11.120;2022-11-04T14:47:12;18.20;58.50
74220;DHT22;62580;54.416;11.120;2022-11-04T14:57:17;18.20;58.60
74220;DHT22;62580;54.416;11.120;2022-11-04T15:07:31;18.20;58.60
74220;DHT22;62580;54.416;11.120;2022-11-04T15:17:33;18.30;58.60
74220;DHT22;62580;54.416;11.120;2022-11-04T15:27:34;18.30;58.50
74220;DHT22;62580;54.416;11.120;2022-11-04T15:37:38;18.20;58.50
74220;DHT22;62580;54.416;11.120;2022-11-04T15:47:40;18.20;58.60
74220;DHT22;62580;54.416;11.120;2022-11-04T15:57:42;18.20;58.60
74220;DHT22;62580;54.416;11.120;2022-11-04T16:07:44;18.30;58.60
74220;DHT22;62580;54.416;11.120;2022-11-04T16:17:46;18.30;58.60
74220;DHT22;62580;54.416;11.120;2022-11-04T16:27:47;18.30;58.60
74220;DHT22;62580;54.416;11.120;2022-11-04T16:37:50;18.40;58.40
74220;DHT22;62580;54.416;11.120;2022-11-04T16:47:51;18.60;58.30
74220;DHT22;62580;54.416;11.120;2022-11-04T16:57:57;18.70;58.10
74220;DHT22;62580;54.416;11.120;2022-11-04T17:07:59;18.80;58.00
74220;DHT22;62580;54.416;11.120;2022-11-04T17:18:01;18.90;58.00
74220;DHT22;62580;54.416;11.120;2022-11-04T17:28:02;19.00;57.90
74220;DHT22;62580;54.416;11.120;2022-11-04T17:38:04;19.10;57.90
74220;DHT22;62580;54.416;11.120;2022-11-04T17:48:05;19.20;57.90
74220;DHT22;62580;54.416;11.120;2022-11-04T17:58:07;19.20;57.80
74220;DHT22;62580;54.416;11.120;2022-11-04T18:08:08;19.20;57.70
74220;DHT22;62580;54.416;11.120;2022-11-04T18:18:10;19.30;57.70
74220;DHT22;62580;54.416;11.120;2022-11-04T18:28:11;19.30;57.60
74220;DHT22;62580;54.416;11.120;2022-11-04T18:38:13;19.40;57.60
74220;DHT22;62580;54.416;11.120;2022-11-04T18:48:13;19.50;57.60
74220;DHT22;62580;54.416;11.120;2022-11-04T18:58:15;19.50;57.60
74220;DHT22;62580;54.416;11.120;2022-11-04T19:08:16;19.50;57.60
74220;DHT22;62580;54.416;11.120;2022-11-04T19:18:18;19.60;57.60
74220;DHT22;62580;54.416;11.120;2022-11-04T19:28:19;19.60;57.60
74220;DHT22;62580;54.416;11.120;2022-11-04T19:38:21;19.70;57.70
74220;DHT22;62580;54.416;11.120;2022-11-04T19:48:22;19.70;57.60
74220;DHT22;62580;54.416;11.120;2022-11-04T19:58:24;19.70;57.60
74220;DHT22;62580;54.416;11.120;2022-11-04T20:08:25;19.70;57.60
74220;DHT22;62580;54.416;11.120;2022-11-04T20:18:27;19.70;57.60
74220;DHT22;62580;54.416;11.120;2022-11-04T20:28:28;19.80;57.80
74220;DHT22;62580;54.416;11.120;2022-11-04T20:38:30;20.20;56.80
74220;DHT22;62580;54.416;11.120;2022-11-04T20:48:30;19.90;57.60
74220;DHT22;62580;54.416;11.120;2022-11-04T20:58:33;19.90;57.40
74220;DHT22;62580;54.416;11.120;2022-11-04T21:08:35;20.00;57.50
74220;DHT22;62580;54.416;11.120;2022-11-04T21:18:37;20.00;57.50
74220;DHT22;62580;54.416;11.120;2022-11-04T21:28:37;20.00;57.50
74220;DHT22;62580;54.416;11.120;2022-11-04T21:38:40;19.90;57.60
74220;DHT22;62580;54.416;11.120;2022-11-04T21:48:41;19.80;57.70
74220;DHT22;62580;54.416;11.120;2022-11-04T21:58:44;19.80;57.90
74220;DHT22;62580;54.416;11.120;2022-11-04T22:08:47;19.70;58.00
74220;DHT22;62580;54.416;11.120;2022-11-04T22:18:51;19.60;58.20
74220;DHT22;62580;54.416;11.120;2022-11-04T22:28:53;19.50;58.30
74220;DHT22;62580;54.416;11.120;2022-11-04T22:38:55;19.40;58.10
74220;DHT22;62580;54.416;11.120;2022-11-04T22:48:56;19.30;58.30
74220;DHT22;62580;54.416;11.120;2022-11-04T22:58:59;19.40;58.40
74220;DHT22;62580;54.416;11.120;2022-11-04T23:08:59;19.40;58.30
74220;DHT22;62580;54.416;11.120;2022-11-04T23:19:01;19.40;58.40
74220;DHT22;62580;54.416;11.120;2022-11-04T23:29:02;19.40;58.50
74220;DHT22;62580;54.416;11.120;2022-11-04T23:39:04;19.40;58.60
74220;DHT22;62580;54.416;11.120;2022-11-04T23:49:06;19.40;58.80
74220;DHT22;62580;54.416;11.120;2022-11-04T23:59:10;19.40;58.60
